sensor_id;sensor_type;location;lat;lon;timestamp;P1;durP1;ratioP1;P2;durP2;ratioP2
10537;SDS011;5317;49.048;8.468;2022-10-16T00:01:40;3.13;;;1.43;;
10537;SDS011;5317;49.048;8.468;2022-10-16T00:04:08;1.83;;;1.37;;
10537;SDS011;5317;49.048;8.468;2022-10-16T00:06:36;3.00;;;1.37;;
10537;SDS011;5317;49.048;8.468;2022-10-16T00:09:03;2.13;;;1.43;;
10537;SDS011;5317;49.048;8.468;2022-10-16T00:11:31;1.37;;;1.27;;
10537;SDS011;5317;49.048;8.468;2022-10-16T00:14:04;2.73;;;1.30;;
10537;SDS011;5317;49.048;8.468;2022-10-16T00:16:34;1.37;;;1.27;;
10537;SDS011;5317;49.048;8.468;2022-10-16T00:19:01;2.50;;;1.50;;
10537;SDS011;5317;49.048;8.468;2022-10-16T00:21:29;5.17;;;1.50;;
10537;SDS011;5317;49.048;8.468;2022-10-16T00:23:58;4.10;;;1.80;;
10537;SDS011;5317;49.048;8.468;2022-10-16T00:26:30;5.00;;;1.50;;
10537;SDS011;5317;49.048;8.468;2022-10-16T00:28:59;6.43;;;1.70;;
10537;SDS011;5317;49.048;8.468;2022-10-16T00:31:28;3.17;;;1.50;;
10537;SDS011;5317;49.048;8.468;2022-10-16T00:33:56;3.27;;;1.50;;
10537;SDS011;5317;49.048;8.468;2022-10-16T00:36:24;2.90;;;1.60;;
10537;SDS011;5317;49.048;8.468;2022-10-16T00:38:52;2.20;;;1.53;;
10537;SDS011;5317;49.048;8.468;2022-10-16T00:41:23;1.97;;;1.40;;
10537;SDS011;5317;49.048;8.468;2022-10-16T00:43:52;5.90;;;1.70;;
10537;SDS011;5317;49.048;8.468;2022-10-16T00:46:22;1.70;;;1.43;;
10537;SDS011;5317;49.048;8.468;2022-10-16T00:48:54;3.27;;;1.30;;
10537;SDS011;5317;49.048;8.468;2022-10-16T00:51:28;3.47;;;1.70;;
10537;SDS011;5317;49.048;8.468;2022-10-16T00:53:59;1.60;;;1.40;;
10537;SDS011;5317;49.048;8.468;2022-10-16T00:56:28;5.10;;;1.50;;
10537;SDS011;5317;49.048;8.468;2022-10-16T00:58:55;1.77;;;1.40;;
10537;SDS011;5317;49.048;8.468;2022-10-16T01:01:25;3.23;;;1.70;;
10537;SDS011;5317;49.048;8.468;2022-10-16T01:03:54;3.13;;;1.40;;
10537;SDS011;5317;49.048;8.468;2022-10-16T01:06:22;3.90;;;1.60;;
10537;SDS011;5317;49.048;8.468;2022-10-16T01:09:02;4.23;;;1.63;;
10537;SDS011;5317;49.048;8.468;2022-10-16T01:11:41;2.17;;;1.50;;
10537;SDS011;5317;49.048;8.468;2022-10-16T01:14:21;2.13;;;1.80;;
10537;SDS011;5317;49.048;8.468;2022-10-16T01:16:59;4.70;;;2.00;;
10537;SDS011;5317;49.048;8.468;2022-10-16T01:19:38;1.43;;;1.33;;
10537;SDS011;5317;49.048;8.468;2022-10-16T01:22:33;3.43;;;1.80;;
10537;SDS011;5317;49.048;8.468;2022-10-16T01:25:17;2.83;;;1.63;;
10537;SDS011;5317;49.048;8.468;2022-10-16T01:27:57;2.33;;;1.90;;
10537;SDS011;5317;49.048;8.468;2022-10-16T01:30:27;4.40;;;1.50;;
10537;SDS011;5317;49.048;8.468;2022-10-16T01:33:01;2.23;;;1.60;;
10537;SDS011;5317;49.048;8.468;2022-10-16T01:35:34;2.03;;;1.50;;
10537;SDS011;5317;49.048;8.468;2022-10-16T01:38:08;3.27;;;1.60;;
10537;SDS011;5317;49.048;8.468;2022-10-16T01:40:44;4.90;;;1.90;;
10537;SDS011;5317;49.048;8.468;2022-10-16T01:43:19;2.03;;;1.63;;
10537;SDS011;5317;49.048;8.468;2022-10-16T01:45:51;1.80;;;1.30;;
10537;SDS011;5317;49.048;8.468;2022-10-16T01:48:20;3.23;;;1.50;;
10537;SDS011;5317;49.048;8.468;2022-10-16T01:50:56;3.23;;;1.77;;
10537;SDS011;5317;49.048;8.468;2022-10-16T01:53:27;4.23;;;1.80;;
10537;SDS011;5317;49.048;8.468;2022-10-16T01:55:56;3.00;;;1.73;;
10537;SDS011;5317;49.048;8.468;2022-10-16T01:58:28;3.23;;;1.40;;
10537;SDS011;5317;49.048;8.468;2022-10-16T02:01:01;2.00;;;1.40;;
10537;SDS011;5317;49.048;8.468;2022-10-16T02:03:30;2.17;;;1.50;;
10537;SDS011;5317;49.048;8.468;2022-10-16T02:06:00;1.60;;;1.50;;
10537;SDS011;5317;49.048;8.468;2022-10-16T02:08:28;4.93;;;1.60;;
10537;SDS011;5317;49.048;8.468;2022-10-16T02:10:57;2.90;;;1.50;;
10537;SDS011;5317;49.048;8.468;2022-10-16T02:13:29;3.90;;;1.67;;
10537;SDS011;5317;49.048;8.468;2022-10-16T02:16:04;4.77;;;1.53;;
10537;SDS011;5317;49.048;8.468;2022-10-16T02:18:32;2.23;;;1.30;;
10537;SDS011;5317;49.048;8.468;2022-10-16T02:21:00;4.40;;;1.47;;
10537;SDS011;5317;49.048;8.468;2022-10-16T02:23:37;2.60;;;1.40;;
10537;SDS011;5317;49.048;8.468;2022-10-16T02:26:18;5.97;;;2.50;;
10537;SDS011;5317;49.048;8.468;2022-10-16T02:28:57;2.07;;;1.43;;
10537;SDS011;5317;49.048;8.468;2022-10-16T02:31:32;2.27;;;1.87;;
10537;SDS011;5317;49.048;8.468;2022-10-16T02:34:05;5.63;;;1.80;;
10537;SDS011;5317;49.048;8.468;2022-10-16T02:36:37;2.20;;;1.40;;
10537;SDS011;5317;49.048;8.468;2022-10-16T02:39:07;3.27;;;1.83;;
10537;SDS011;5317;49.048;8.468;2022-10-16T02:41:35;3.07;;;1.63;;
10537;SDS011;5317;49.048;8.468;2022-10-16T02:44:07;2.20;;;1.47;;
10537;SDS011;5317;49.048;8.468;2022-10-16T02:46:34;1.93;;;1.67;;
10537;SDS011;5317;49.048;8.468;2022-10-16T02:49:01;2.33;;;1.60;;
10537;SDS011;5317;49.048;8.468;2022-10-16T02:51:29;3.03;;;1.60;;
10537;SDS011;5317;49.048;8.468;2022-10-16T02:53:56;2.70;;;1.43;;
10537;SDS011;5317;49.048;8.468;2022-10-16T02:56:23;1.83;;;1.70;;
10537;SDS011;5317;49.048;8.468;2022-10-16T02:58:50;2.73;;;1.50;;
10537;SDS011;5317;49.048;8.468;2022-10-16T03:01:19;1.70;;;1.60;;
10537;SDS011;5317;49.048;8.468;2022-10-16T03:03:46;3.53;;;1.67;;
10537;SDS011;5317;49.048;8.468;2022-10-16T03:06:13;2.27;;;1.73;;
10537;SDS011;5317;49.048;8.468;2022-10-16T03:08:40;4.13;;;1.53;;
10537;SDS011;5317;49.048;8.468;2022-10-16T03:11:07;3.30;;;1.60;;
10537;SDS011;5317;49.048;8.468;2022-10-16T03:13:35;3.10;;;1.80;;
10537;SDS011;5317;49.048;8.468;2022-10-16T03:16:02;6.23;;;1.80;;
10537;SDS011;5317;49.048;8.468;2022-10-16T03:18:31;2.30;;;1.70;;
10537;SDS011;5317;49.048;8.468;2022-10-16T03:20:58;3.73;;;1.90;;
10537;SDS011;5317;49.048;8.468;2022-10-16T03:23:26;3.23;;;1.57;;
10537;SDS011;5317;49.048;8.468;2022-10-16T03:25:53;2.30;;;1.77;;
10537;SDS011;5317;49.048;8.468;2022-10-16T03:28:20;4.43;;;1.90;;
10537;SDS011;5317;49.048;8.468;2022-10-16T03:30:47;1.70;;;1.60;;
10537;SDS011;5317;49.048;8.468;2022-10-16T03:33:14;2.23;;;2.00;;
10537;SDS011;5317;49.048;8.468;2022-10-16T03:35:42;4.87;;;1.70;;
10537;SDS011;5317;49.048;8.468;2022-10-16T03:38:18;4.00;;;1.50;;
10537;SDS011;5317;49.048;8.468;2022-10-16T03:40:46;1.67;;;1.57;;
10537;SDS011;5317;49.048;8.468;2022-10-16T03:43:13;2.80;;;1.43;;
10537;SDS011;5317;49.048;8.468;2022-10-16T03:45:41;2.00;;;1.63;;
10537;SDS011;5317;49.048;8.468;2022-10-16T03:48:08;5.00;;;1.60;;
10537;SDS011;5317;49.048;8.468;2022-10-16T03:50:35;2.97;;;1.83;;
10537;SDS011;5317;49.048;8.468;2022-10-16T03:53:04;4.70;;;1.80;;
10537;SDS011;5317;49.048;8.468;2022-10-16T03:55:31;2.77;;;1.60;;
10537;SDS011;5317;49.048;8.468;2022-10-16T03:57:58;2.40;;;1.40;;
10537;SDS011;5317;49.048;8.468;2022-10-16T04:00:25;4.90;;;1.80;;
10537;SDS011;5317;49.048;8.468;2022-10-16T04:02:52;1.80;;;1.30;;
10537;SDS011;5317;49.048;8.468;2022-10-16T04:05:20;2.53;;;1.40;;
10537;SDS011;5317;49.048;8.468;2022-10-16T04:07:47;1.50;;;1.40;;
10537;SDS011;5317;49.048;8.468;2022-10-16T04:10:15;2.17;;;1.70;;
10537;SDS011;5317;49.048;8.468;2022-10-16T04:12:43;1.73;;;1.57;;
10537;SDS011;5317;49.048;8.468;2022-10-16T04:15:10;2.33;;;1.30;;
10537;SDS011;5317;49.048;8.468;2022-10-16T04:17:37;4.43;;;1.50;;
10537;SDS011;5317;49.048;8.468;2022-10-16T04:20:05;2.43;;;1.50;;
10537;SDS011;5317;49.048;8.468;2022-10-16T04:22:33;2.73;;;1.43;;
10537;SDS011;5317;49.048;8.468;2022-10-16T04:25:00;3.17;;;1.70;;
10537;SDS011;5317;49.048;8.468;2022-10-16T04:27:28;1.40;;;1.30;;
10537;SDS011;5317;49.048;8.468;2022-10-16T04:29:56;3.87;;;1.70;;
10537;SDS011;5317;49.048;8.468;2022-10-16T04:32:23;3.03;;;1.77;;
10537;SDS011;5317;49.048;8.468;2022-10-16T04:34:50;2.40;;;1.67;;
10537;SDS011;5317;49.048;8.468;2022-10-16T04:37:23;4.27;;;1.63;;
10537;SDS011;5317;49.048;8.468;2022-10-16T04:39:51;3.20;;;1.90;;
10537;SDS011;5317;49.048;8.468;2022-10-16T04:42:21;2.90;;;1.57;;
10537;SDS011;5317;49.048;8.468;2022-10-16T04:44:49;4.80;;;1.40;;
10537;SDS011;5317;49.048;8.468;2022-10-16T04:47:17;2.43;;;1.30;;
10537;SDS011;5317;49.048;8.468;2022-10-16T04:49:44;1.90;;;1.30;;
10537;SDS011;5317;49.048;8.468;2022-10-16T04:52:11;2.20;;;1.40;;
10537;SDS011;5317;49.048;8.468;2022-10-16T04:54:40;2.73;;;1.73;;
10537;SDS011;5317;49.048;8.468;2022-10-16T04:57:07;2.97;;;1.47;;
10537;SDS011;5317;49.048;8.468;2022-10-16T04:59:35;2.00;;;1.50;;
10537;SDS011;5317;49.048;8.468;2022-10-16T05:02:03;3.70;;;1.20;;
10537;SDS011;5317;49.048;8.468;2022-10-16T05:04:30;1.73;;;1.33;;
10537;SDS011;5317;49.048;8.468;2022-10-16T05:06:57;1.50;;;1.33;;
10537;SDS011;5317;49.048;8.468;2022-10-16T05:09:25;1.83;;;1.40;;
10537;SDS011;5317;49.048;8.468;2022-10-16T05:11:52;1.70;;;1.60;;
10537;SDS011;5317;49.048;8.468;2022-10-16T05:14:19;2.07;;;1.50;;
10537;SDS011;5317;49.048;8.468;2022-10-16T05:16:46;3.03;;;2.00;;
10537;SDS011;5317;49.048;8.468;2022-10-16T05:19:15;1.33;;;1.23;;
10537;SDS011;5317;49.048;8.468;2022-10-16T05:21:42;2.90;;;1.60;;
10537;SDS011;5317;49.048;8.468;2022-10-16T05:24:09;2.03;;;1.50;;
10537;SDS011;5317;49.048;8.468;2022-10-16T05:26:37;1.93;;;1.70;;
10537;SDS011;5317;49.048;8.468;2022-10-16T05:29:04;3.43;;;1.83;;
10537;SDS011;5317;49.048;8.468;2022-10-16T05:31:31;5.10;;;2.10;;
10537;SDS011;5317;49.048;8.468;2022-10-16T05:33:58;3.40;;;2.40;;
10537;SDS011;5317;49.048;8.468;2022-10-16T05:36:30;4.07;;;2.50;;
10537;SDS011;5317;49.048;8.468;2022-10-16T05:38:57;5.20;;;2.60;;
10537;SDS011;5317;49.048;8.468;2022-10-16T05:41:24;2.10;;;1.90;;
10537;SDS011;5317;49.048;8.468;2022-10-16T05:43:51;5.00;;;2.70;;
10537;SDS011;5317;49.048;8.468;2022-10-16T05:46:19;5.60;;;2.17;;
10537;SDS011;5317;49.048;8.468;2022-10-16T05:48:46;2.53;;;2.10;;
10537;SDS011;5317;49.048;8.468;2022-10-16T05:51:14;4.00;;;1.70;;
10537;SDS011;5317;49.048;8.468;2022-10-16T05:53:43;3.50;;;1.80;;
10537;SDS011;5317;49.048;8.468;2022-10-16T05:56:10;2.03;;;1.57;;
10537;SDS011;5317;49.048;8.468;2022-10-16T05:58:38;2.47;;;2.10;;
10537;SDS011;5317;49.048;8.468;2022-10-16T06:01:06;3.23;;;1.90;;
10537;SDS011;5317;49.048;8.468;2022-10-16T06:03:37;5.43;;;2.67;;
10537;SDS011;5317;49.048;8.468;2022-10-16T06:06:09;1.90;;;1.60;;
10537;SDS011;5317;49.048;8.468;2022-10-16T06:08:39;2.30;;;1.73;;
10537;SDS011;5317;49.048;8.468;2022-10-16T06:11:09;2.90;;;1.27;;
10537;SDS011;5317;49.048;8.468;2022-10-16T06:13:39;2.90;;;1.60;;
10537;SDS011;5317;49.048;8.468;2022-10-16T06:16:08;3.63;;;1.60;;
10537;SDS011;5317;49.048;8.468;2022-10-16T06:18:38;1.60;;;1.20;;
10537;SDS011;5317;49.048;8.468;2022-10-16T06:21:09;5.57;;;2.13;;
10537;SDS011;5317;49.048;8.468;2022-10-16T06:23:40;1.10;;;1.00;;
10537;SDS011;5317;49.048;8.468;2022-10-16T06:26:10;4.43;;;2.10;;
10537;SDS011;5317;49.048;8.468;2022-10-16T06:28:39;2.60;;;1.63;;
10537;SDS011;5317;49.048;8.468;2022-10-16T06:31:08;2.67;;;1.90;;
10537;SDS011;5317;49.048;8.468;2022-10-16T06:33:37;3.33;;;1.80;;
10537;SDS011;5317;49.048;8.468;2022-10-16T06:36:06;2.17;;;1.47;;
10537;SDS011;5317;49.048;8.468;2022-10-16T06:38:37;1.50;;;1.40;;
10537;SDS011;5317;49.048;8.468;2022-10-16T06:41:11;2.47;;;1.70;;
10537;SDS011;5317;49.048;8.468;2022-10-16T06:43:44;3.60;;;1.40;;
10537;SDS011;5317;49.048;8.468;2022-10-16T06:46:12;2.93;;;1.80;;
10537;SDS011;5317;49.048;8.468;2022-10-16T06:48:42;4.07;;;1.53;;
10537;SDS011;5317;49.048;8.468;2022-10-16T06:51:11;3.53;;;1.40;;
10537;SDS011;5317;49.048;8.468;2022-10-16T06:53:41;3.27;;;1.53;;
10537;SDS011;5317;49.048;8.468;2022-10-16T06:56:13;2.43;;;1.63;;
10537;SDS011;5317;49.048;8.468;2022-10-16T06:58:43;2.77;;;1.60;;
10537;SDS011;5317;49.048;8.468;2022-10-16T07:01:15;2.97;;;1.40;;
10537;SDS011;5317;49.048;8.468;2022-10-16T07:03:44;5.50;;;1.70;;
10537;SDS011;5317;49.048;8.468;2022-10-16T07:06:14;5.10;;;1.63;;
10537;SDS011;5317;49.048;8.468;2022-10-16T07:08:45;3.33;;;1.63;;
10537;SDS011;5317;49.048;8.468;2022-10-16T07:11:26;2.07;;;1.33;;
10537;SDS011;5317;49.048;8.468;2022-10-16T07:13:53;2.87;;;1.63;;
10537;SDS011;5317;49.048;8.468;2022-10-16T07:16:22;2.53;;;1.40;;
10537;SDS011;5317;49.048;8.468;2022-10-16T07:18:53;2.90;;;1.53;;
10537;SDS011;5317;49.048;8.468;2022-10-16T07:21:24;4.00;;;1.50;;
10537;SDS011;5317;49.048;8.468;2022-10-16T07:23:54;1.60;;;1.50;;
10537;SDS011;5317;49.048;8.468;2022-10-16T07:26:23;1.83;;;1.50;;
10537;SDS011;5317;49.048;8.468;2022-10-16T07:28:53;2.43;;;1.50;;
10537;SDS011;5317;49.048;8.468;2022-10-16T07:31:20;2.13;;;1.60;;
10537;SDS011;5317;49.048;8.468;2022-10-16T07:33:48;5.37;;;1.50;;
10537;SDS011;5317;49.048;8.468;2022-10-16T07:36:17;1.67;;;1.50;;
10537;SDS011;5317;49.048;8.468;2022-10-16T07:38:46;1.27;;;1.20;;
10537;SDS011;5317;49.048;8.468;2022-10-16T07:41:14;2.20;;;1.90;;
10537;SDS011;5317;49.048;8.468;2022-10-16T07:43:46;2.80;;;1.93;;
10537;SDS011;5317;49.048;8.468;2022-10-16T07:46:15;2.33;;;1.60;;
10537;SDS011;5317;49.048;8.468;2022-10-16T07:48:44;1.77;;;1.53;;
10537;SDS011;5317;49.048;8.468;2022-10-16T07:51:13;2.90;;;1.93;;
10537;SDS011;5317;49.048;8.468;2022-10-16T07:53:43;2.00;;;1.80;;
10537;SDS011;5317;49.048;8.468;2022-10-16T07:56:14;5.53;;;2.00;;
10537;SDS011;5317;49.048;8.468;2022-10-16T07:58:42;1.87;;;1.60;;
10537;SDS011;5317;49.048;8.468;2022-10-16T08:01:11;1.60;;;1.47;;
10537;SDS011;5317;49.048;8.468;2022-10-16T08:03:41;2.73;;;1.70;;
10537;SDS011;5317;49.048;8.468;2022-10-16T08:06:09;4.77;;;1.87;;
10537;SDS011;5317;49.048;8.468;2022-10-16T08:08:39;1.63;;;1.53;;
10537;SDS011;5317;49.048;8.468;2022-10-16T08:11:07;1.97;;;1.70;;
10537;SDS011;5317;49.048;8.468;2022-10-16T08:13:34;2.40;;;1.83;;
10537;SDS011;5317;49.048;8.468;2022-10-16T08:16:02;3.60;;;2.00;;
10537;SDS011;5317;49.048;8.468;2022-10-16T08:18:34;3.13;;;1.80;;
10537;SDS011;5317;49.048;8.468;2022-10-16T08:21:03;2.87;;;1.87;;
10537;SDS011;5317;49.048;8.468;2022-10-16T08:23:32;2.67;;;1.70;;
10537;SDS011;5317;49.048;8.468;2022-10-16T08:26:02;2.83;;;1.40;;
10537;SDS011;5317;49.048;8.468;2022-10-16T08:28:31;1.40;;;1.30;;
10537;SDS011;5317;49.048;8.468;2022-10-16T08:31:06;1.93;;;1.57;;
10537;SDS011;5317;49.048;8.468;2022-10-16T08:33:37;4.63;;;1.60;;
10537;SDS011;5317;49.048;8.468;2022-10-16T08:36:06;5.47;;;2.03;;
10537;SDS011;5317;49.048;8.468;2022-10-16T08:38:35;2.60;;;1.50;;
10537;SDS011;5317;49.048;8.468;2022-10-16T08:41:10;1.50;;;1.40;;
10537;SDS011;5317;49.048;8.468;2022-10-16T08:44:04;2.80;;;1.40;;
10537;SDS011;5317;49.048;8.468;2022-10-16T08:47:02;2.87;;;1.53;;
10537;SDS011;5317;49.048;8.468;2022-10-16T08:49:47;1.60;;;1.50;;
10537;SDS011;5317;49.048;8.468;2022-10-16T08:52:23;4.63;;;2.33;;
10537;SDS011;5317;49.048;8.468;2022-10-16T08:54:57;4.03;;;1.80;;
10537;SDS011;5317;49.048;8.468;2022-10-16T08:57:26;3.60;;;1.70;;
10537;SDS011;5317;49.048;8.468;2022-10-16T08:59:57;3.17;;;1.63;;
10537;SDS011;5317;49.048;8.468;2022-10-16T09:02:38;3.00;;;1.77;;
10537;SDS011;5317;49.048;8.468;2022-10-16T09:05:20;1.63;;;1.53;;
10537;SDS011;5317;49.048;8.468;2022-10-16T09:08:14;2.03;;;1.83;;
10537;SDS011;5317;49.048;8.468;2022-10-16T09:10:56;5.47;;;1.93;;
10537;SDS011;5317;49.048;8.468;2022-10-16T09:13:32;5.33;;;2.30;;
10537;SDS011;5317;49.048;8.468;2022-10-16T09:16:12;2.10;;;1.90;;
10537;SDS011;5317;49.048;8.468;2022-10-16T09:18:51;2.63;;;1.77;;
10537;SDS011;5317;49.048;8.468;2022-10-16T09:21:28;2.20;;;1.90;;
10537;SDS011;5317;49.048;8.468;2022-10-16T09:24:00;2.43;;;1.73;;
10537;SDS011;5317;49.048;8.468;2022-10-16T09:26:38;2.37;;;1.90;;
10537;SDS011;5317;49.048;8.468;2022-10-16T09:29:05;1.90;;;1.80;;
10537;SDS011;5317;49.048;8.468;2022-10-16T09:31:33;2.83;;;1.90;;
10537;SDS011;5317;49.048;8.468;2022-10-16T09:34:03;2.87;;;1.90;;
10537;SDS011;5317;49.048;8.468;2022-10-16T09:36:40;2.47;;;1.60;;
10537;SDS011;5317;49.048;8.468;2022-10-16T09:39:12;3.47;;;1.70;;
10537;SDS011;5317;49.048;8.468;2022-10-16T09:41:43;2.87;;;1.70;;
10537;SDS011;5317;49.048;8.468;2022-10-16T09:44:18;3.87;;;1.90;;
10537;SDS011;5317;49.048;8.468;2022-10-16T09:47:00;4.17;;;1.90;;
10537;SDS011;5317;49.048;8.468;2022-10-16T09:49:28;2.30;;;2.10;;
10537;SDS011;5317;49.048;8.468;2022-10-16T09:52:04;1.97;;;1.63;;
10537;SDS011;5317;49.048;8.468;2022-10-16T09:54:37;4.93;;;2.00;;
10537;SDS011;5317;49.048;8.468;2022-10-16T09:57:17;2.57;;;1.70;;
10537;SDS011;5317;49.048;8.468;2022-10-16T09:59:46;3.03;;;1.60;;
10537;SDS011;5317;49.048;8.468;2022-10-16T10:02:15;5.60;;;2.03;;
10537;SDS011;5317;49.048;8.468;2022-10-16T10:04:48;2.33;;;1.80;;
10537;SDS011;5317;49.048;8.468;2022-10-16T10:07:23;2.83;;;1.80;;
10537;SDS011;5317;49.048;8.468;2022-10-16T10:09:53;3.30;;;1.90;;
10537;SDS011;5317;49.048;8.468;2022-10-16T10:12:23;4.70;;;2.00;;
10537;SDS011;5317;49.048;8.468;2022-10-16T10:15:03;2.77;;;1.70;;
10537;SDS011;5317;49.048;8.468;2022-10-16T10:17:33;3.07;;;1.90;;
10537;SDS011;5317;49.048;8.468;2022-10-16T10:20:15;2.00;;;1.80;;
10537;SDS011;5317;49.048;8.468;2022-10-16T10:22:52;1.63;;;1.53;;
10537;SDS011;5317;49.048;8.468;2022-10-16T10:25:26;2.00;;;1.40;;
10537;SDS011;5317;49.048;8.468;2022-10-16T10:28:22;3.40;;;1.50;;
10537;SDS011;5317;49.048;8.468;2022-10-16T10:31:14;1.67;;;1.50;;
10537;SDS011;5317;49.048;8.468;2022-10-16T10:33:53;1.60;;;1.50;;
10537;SDS011;5317;49.048;8.468;2022-10-16T10:36:30;4.87;;;1.90;;
10537;SDS011;5317;49.048;8.468;2022-10-16T10:39:05;2.63;;;1.70;;
10537;SDS011;5317;49.048;8.468;2022-10-16T10:44:46;2.03;;;1.70;;
10537;SDS011;5317;49.048;8.468;2022-10-16T10:47:49;2.07;;;1.60;;
10537;SDS011;5317;49.048;8.468;2022-10-16T10:50:43;2.03;;;1.80;;
10537;SDS011;5317;49.048;8.468;2022-10-16T10:53:20;1.90;;;1.80;;
10537;SDS011;5317;49.048;8.468;2022-10-16T10:56:07;2.63;;;1.70;;
10537;SDS011;5317;49.048;8.468;2022-10-16T11:02:04;3.10;;;1.87;;
10537;SDS011;5317;49.048;8.468;2022-10-16T11:07:57;2.10;;;1.90;;
10537;SDS011;5317;49.048;8.468;2022-10-16T11:10:29;1.80;;;1.67;;
10537;SDS011;5317;49.048;8.468;2022-10-16T11:13:09;2.93;;;1.63;;
10537;SDS011;5317;49.048;8.468;2022-10-16T11:15:52;8.47;;;1.80;;
10537;SDS011;5317;49.048;8.468;2022-10-16T11:18:26;4.67;;;1.87;;
10537;SDS011;5317;49.048;8.468;2022-10-16T11:21:04;4.60;;;1.80;;
10537;SDS011;5317;49.048;8.468;2022-10-16T11:23:38;5.13;;;1.80;;
10537;SDS011;5317;49.048;8.468;2022-10-16T11:26:11;3.13;;;1.97;;
10537;SDS011;5317;49.048;8.468;2022-10-16T11:28:47;3.83;;;1.70;;
10537;SDS011;5317;49.048;8.468;2022-10-16T11:31:21;2.53;;;1.70;;
10537;SDS011;5317;49.048;8.468;2022-10-16T11:34:00;4.23;;;2.10;;
10537;SDS011;5317;49.048;8.468;2022-10-16T11:36:38;4.13;;;1.80;;
10537;SDS011;5317;49.048;8.468;2022-10-16T11:39:15;2.80;;;1.90;;
10537;SDS011;5317;49.048;8.468;2022-10-16T11:41:48;2.40;;;1.70;;
10537;SDS011;5317;49.048;8.468;2022-10-16T11:44:32;2.20;;;2.00;;
10537;SDS011;5317;49.048;8.468;2022-10-16T11:47:19;3.47;;;1.67;;
10537;SDS011;5317;49.048;8.468;2022-10-16T11:49:57;2.53;;;2.00;;
10537;SDS011;5317;49.048;8.468;2022-10-16T11:52:33;3.23;;;1.57;;
10537;SDS011;5317;49.048;8.468;2022-10-16T11:55:14;2.47;;;1.90;;
10537;SDS011;5317;49.048;8.468;2022-10-16T11:57:47;3.40;;;2.00;;
10537;SDS011;5317;49.048;8.468;2022-10-16T12:00:21;2.37;;;1.50;;
10537;SDS011;5317;49.048;8.468;2022-10-16T12:02:56;3.00;;;1.73;;
10537;SDS011;5317;49.048;8.468;2022-10-16T12:05:37;1.80;;;1.60;;
10537;SDS011;5317;49.048;8.468;2022-10-16T12:08:28;1.67;;;1.57;;
10537;SDS011;5317;49.048;8.468;2022-10-16T12:11:05;2.37;;;1.50;;
10537;SDS011;5317;49.048;8.468;2022-10-16T12:13:36;2.07;;;1.80;;
10537;SDS011;5317;49.048;8.468;2022-10-16T12:16:19;2.17;;;1.57;;
10537;SDS011;5317;49.048;8.468;2022-10-16T12:19:02;3.97;;;2.23;;
10537;SDS011;5317;49.048;8.468;2022-10-16T12:21:38;3.70;;;1.80;;
10537;SDS011;5317;49.048;8.468;2022-10-16T12:24:18;2.13;;;1.60;;
10537;SDS011;5317;49.048;8.468;2022-10-16T12:26:58;2.60;;;1.40;;
10537;SDS011;5317;49.048;8.468;2022-10-16T12:29:32;4.33;;;1.90;;
10537;SDS011;5317;49.048;8.468;2022-10-16T12:34:57;3.73;;;1.67;;
10537;SDS011;5317;49.048;8.468;2022-10-16T12:37:27;2.13;;;1.50;;
10537;SDS011;5317;49.048;8.468;2022-10-16T12:40:10;2.00;;;1.43;;
10537;SDS011;5317;49.048;8.468;2022-10-16T12:42:41;2.10;;;1.70;;
10537;SDS011;5317;49.048;8.468;2022-10-16T12:45:28;2.23;;;1.40;;
10537;SDS011;5317;49.048;8.468;2022-10-16T12:47:59;2.70;;;1.50;;
10537;SDS011;5317;49.048;8.468;2022-10-16T12:50:30;3.13;;;1.67;;
10537;SDS011;5317;49.048;8.468;2022-10-16T12:53:02;3.40;;;1.60;;
10537;SDS011;5317;49.048;8.468;2022-10-16T12:55:45;1.90;;;1.53;;
10537;SDS011;5317;49.048;8.468;2022-10-16T12:58:31;1.97;;;1.70;;
10537;SDS011;5317;49.048;8.468;2022-10-16T13:01:26;1.50;;;1.40;;
10537;SDS011;5317;49.048;8.468;2022-10-16T13:04:15;3.83;;;1.70;;
10537;SDS011;5317;49.048;8.468;2022-10-16T13:07:20;1.50;;;1.40;;
10537;SDS011;5317;49.048;8.468;2022-10-16T13:10:14;3.27;;;1.70;;
10537;SDS011;5317;49.048;8.468;2022-10-16T13:13:19;1.37;;;1.27;;
10537;SDS011;5317;49.048;8.468;2022-10-16T13:16:23;3.03;;;1.60;;
10537;SDS011;5317;49.048;8.468;2022-10-16T13:19:06;2.07;;;1.50;;
10537;SDS011;5317;49.048;8.468;2022-10-16T13:21:48;1.70;;;1.60;;
10537;SDS011;5317;49.048;8.468;2022-10-16T13:24:30;3.17;;;1.57;;
10537;SDS011;5317;49.048;8.468;2022-10-16T13:27:23;2.43;;;1.80;;
10537;SDS011;5317;49.048;8.468;2022-10-16T13:30:02;3.13;;;1.67;;
10537;SDS011;5317;49.048;8.468;2022-10-16T13:32:43;2.80;;;1.77;;
10537;SDS011;5317;49.048;8.468;2022-10-16T13:35:25;3.93;;;1.50;;
10537;SDS011;5317;49.048;8.468;2022-10-16T13:38:05;3.10;;;1.63;;
10537;SDS011;5317;49.048;8.468;2022-10-16T13:40:49;2.90;;;1.80;;
10537;SDS011;5317;49.048;8.468;2022-10-16T13:43:20;2.00;;;1.60;;
10537;SDS011;5317;49.048;8.468;2022-10-16T13:45:54;4.07;;;1.93;;
10537;SDS011;5317;49.048;8.468;2022-10-16T13:48:24;3.37;;;1.57;;
10537;SDS011;5317;49.048;8.468;2022-10-16T13:51:00;1.73;;;1.57;;
10537;SDS011;5317;49.048;8.468;2022-10-16T13:53:37;3.10;;;2.20;;
10537;SDS011;5317;49.048;8.468;2022-10-16T13:56:06;3.90;;;2.10;;
10537;SDS011;5317;49.048;8.468;2022-10-16T13:58:38;3.77;;;1.93;;
10537;SDS011;5317;49.048;8.468;2022-10-16T14:01:06;4.33;;;2.10;;
10537;SDS011;5317;49.048;8.468;2022-10-16T14:03:45;3.03;;;1.73;;
10537;SDS011;5317;49.048;8.468;2022-10-16T14:06:16;1.93;;;1.53;;
10537;SDS011;5317;49.048;8.468;2022-10-16T14:08:48;4.60;;;1.97;;
10537;SDS011;5317;49.048;8.468;2022-10-16T14:11:25;2.67;;;1.50;;
10537;SDS011;5317;49.048;8.468;2022-10-16T14:13:53;4.53;;;2.10;;
10537;SDS011;5317;49.048;8.468;2022-10-16T14:16:21;1.90;;;1.70;;
10537;SDS011;5317;49.048;8.468;2022-10-16T14:18:55;5.57;;;1.90;;
10537;SDS011;5317;49.048;8.468;2022-10-16T14:21:28;5.03;;;1.93;;
10537;SDS011;5317;49.048;8.468;2022-10-16T14:23:57;6.00;;;2.10;;
10537;SDS011;5317;49.048;8.468;2022-10-16T14:26:25;3.47;;;2.33;;
10537;SDS011;5317;49.048;8.468;2022-10-16T14:29:08;6.27;;;2.37;;
10537;SDS011;5317;49.048;8.468;2022-10-16T14:31:40;4.83;;;2.23;;
10537;SDS011;5317;49.048;8.468;2022-10-16T14:34:25;3.90;;;2.30;;
10537;SDS011;5317;49.048;8.468;2022-10-16T14:36:59;6.67;;;2.10;;
10537;SDS011;5317;49.048;8.468;2022-10-16T14:39:34;5.83;;;2.37;;
10537;SDS011;5317;49.048;8.468;2022-10-16T14:42:02;4.33;;;2.60;;
10537;SDS011;5317;49.048;8.468;2022-10-16T14:44:31;11.37;;;6.07;;
10537;SDS011;5317;49.048;8.468;2022-10-16T14:47:06;6.80;;;5.77;;
10537;SDS011;5317;49.048;8.468;2022-10-16T14:49:39;6.60;;;5.60;;
10537;SDS011;5317;49.048;8.468;2022-10-16T14:52:12;7.07;;;4.70;;
10537;SDS011;5317;49.048;8.468;2022-10-16T14:54:40;4.97;;;4.47;;
10537;SDS011;5317;49.048;8.468;2022-10-16T14:57:13;3.70;;;3.17;;
10537;SDS011;5317;49.048;8.468;2022-10-16T14:59:45;4.20;;;3.43;;
10537;SDS011;5317;49.048;8.468;2022-10-16T15:02:18;4.87;;;3.07;;
10537;SDS011;5317;49.048;8.468;2022-10-16T15:04:54;3.27;;;2.57;;
10537;SDS011;5317;49.048;8.468;2022-10-16T15:07:24;4.43;;;2.30;;
10537;SDS011;5317;49.048;8.468;2022-10-16T15:09:51;4.30;;;2.43;;
10537;SDS011;5317;49.048;8.468;2022-10-16T15:12:19;2.40;;;2.10;;
10537;SDS011;5317;49.048;8.468;2022-10-16T15:14:47;2.67;;;2.00;;
10537;SDS011;5317;49.048;8.468;2022-10-16T15:17:14;4.17;;;2.00;;
10537;SDS011;5317;49.048;8.468;2022-10-16T15:19:41;1.93;;;1.80;;
10537;SDS011;5317;49.048;8.468;2022-10-16T15:22:09;6.03;;;2.00;;
10537;SDS011;5317;49.048;8.468;2022-10-16T15:24:38;2.17;;;1.70;;
10537;SDS011;5317;49.048;8.468;2022-10-16T15:27:06;3.53;;;1.80;;
10537;SDS011;5317;49.048;8.468;2022-10-16T15:29:33;2.10;;;1.90;;
10537;SDS011;5317;49.048;8.468;2022-10-16T15:32:01;2.93;;;1.90;;
10537;SDS011;5317;49.048;8.468;2022-10-16T15:34:28;5.47;;;1.70;;
10537;SDS011;5317;49.048;8.468;2022-10-16T15:36:56;2.70;;;1.77;;
10537;SDS011;5317;49.048;8.468;2022-10-16T15:39:25;4.03;;;2.00;;
10537;SDS011;5317;49.048;8.468;2022-10-16T15:41:54;2.43;;;1.90;;
10537;SDS011;5317;49.048;8.468;2022-10-16T15:44:21;1.90;;;1.70;;
10537;SDS011;5317;49.048;8.468;2022-10-16T15:46:51;2.83;;;1.90;;